sensor_id;sensor_type;location;lat;lon;timestamp;P1;durP1;ratioP1;P2;durP2;ratioP2
19566;SDS011;9930;49.240;8.548;2022-10-16T00:01:30;2.28;;;1.55;;
19566;SDS011;9930;49.240;8.548;2022-10-16T00:03:57;1.35;;;1.30;;
19566;SDS011;9930;49.240;8.548;2022-10-16T00:06:25;1.65;;;1.30;;
19566;SDS011;9930;49.240;8.548;2022-10-16T00:08:54;1.60;;;1.50;;
19566;SDS011;9930;49.240;8.548;2022-10-16T00:11:24;1.38;;;1.27;;
19566;SDS011;9930;49.240;8.548;2022-10-16T00:13:59;8.38;;;7.57;;
19566;SDS011;9930;49.240;8.548;2022-10-16T00:16:30;8.50;;;7.50;;
19566;SDS011;9930;49.240;8.548;2022-10-16T00:18:59;6.90;;;6.25;;
19566;SDS011;9930;49.240;8.548;2022-10-16T00:21:26;5.35;;;4.85;;
19566;SDS011;9930;49.240;8.548;2022-10-16T00:23:58;3.40;;;3.10;;
19566;SDS011;9930;49.240;8.548;2022-10-16T00:26:29;2.55;;;2.35;;
19566;SDS011;9930;49.240;8.548;2022-10-16T00:28:57;1.75;;;1.65;;
19566;SDS011;9930;49.240;8.548;2022-10-16T00:31:25;1.30;;;1.23;;
19566;SDS011;9930;49.240;8.548;2022-10-16T00:33:52;2.92;;;1.70;;
19566;SDS011;9930;49.240;8.548;2022-10-16T00:36:19;2.45;;;1.30;;
19566;SDS011;9930;49.240;8.548;2022-10-16T00:38:51;1.27;;;1.17;;
19566;SDS011;9930;49.240;8.548;2022-10-16T00:41:26;2.90;;;1.60;;
19566;SDS011;9930;49.240;8.548;2022-10-16T00:43:58;1.60;;;1.50;;
19566;SDS011;9930;49.240;8.548;2022-10-16T00:46:27;2.17;;;1.48;;
19566;SDS011;9930;49.240;8.548;2022-10-16T00:49:04;1.42;;;1.27;;
19566;SDS011;9930;49.240;8.548;2022-10-16T00:51:42;1.85;;;1.40;;
19566;SDS011;9930;49.240;8.548;2022-10-16T00:54:12;2.05;;;1.20;;
19566;SDS011;9930;49.240;8.548;2022-10-16T00:56:56;1.17;;;1.10;;
19566;SDS011;9930;49.240;8.548;2022-10-16T00:59:27;2.75;;;1.27;;
19566;SDS011;9930;49.240;8.548;2022-10-16T01:01:55;1.50;;;1.40;;
19566;SDS011;9930;49.240;8.548;2022-10-16T01:04:25;1.30;;;1.20;;
19566;SDS011;9930;49.240;8.548;2022-10-16T01:13:06;2.75;;;1.70;;
19566;SDS011;9930;49.240;8.548;2022-10-16T01:16:01;2.40;;;1.52;;
19566;SDS011;9930;49.240;8.548;2022-10-16T01:21:27;2.53;;;1.60;;
19566;SDS011;9930;49.240;8.548;2022-10-16T01:24:05;1.90;;;1.30;;
19566;SDS011;9930;49.240;8.548;2022-10-16T01:29:54;1.25;;;1.15;;
19566;SDS011;9930;49.240;8.548;2022-10-16T01:32:36;1.30;;;1.20;;
19566;SDS011;9930;49.240;8.548;2022-10-16T01:35:18;1.10;;;1.10;;
19566;SDS011;9930;49.240;8.548;2022-10-16T01:38:03;1.20;;;1.10;;
19566;SDS011;9930;49.240;8.548;2022-10-16T01:40:41;1.25;;;1.15;;
19566;SDS011;9930;49.240;8.548;2022-10-16T01:43:12;3.88;;;1.42;;
19566;SDS011;9930;49.240;8.548;2022-10-16T01:46:08;3.42;;;1.20;;
19566;SDS011;9930;49.240;8.548;2022-10-16T01:48:41;1.40;;;1.00;;
19566;SDS011;9930;49.240;8.548;2022-10-16T01:51:11;1.17;;;1.08;;
19566;SDS011;9930;49.240;8.548;2022-10-16T01:53:43;1.55;;;1.20;;
19566;SDS011;9930;49.240;8.548;2022-10-16T01:56:17;1.95;;;1.17;;
19566;SDS011;9930;49.240;8.548;2022-10-16T01:58:52;1.33;;;1.23;;
19566;SDS011;9930;49.240;8.548;2022-10-16T02:01:27;1.67;;;1.20;;
19566;SDS011;9930;49.240;8.548;2022-10-16T02:04:00;3.90;;;1.17;;
19566;SDS011;9930;49.240;8.548;2022-10-16T02:06:37;2.33;;;1.30;;
19566;SDS011;9930;49.240;8.548;2022-10-16T02:09:06;1.90;;;1.40;;
19566;SDS011;9930;49.240;8.548;2022-10-16T02:11:34;2.03;;;1.50;;
19566;SDS011;9930;49.240;8.548;2022-10-16T02:14:06;1.45;;;1.35;;
19566;SDS011;9930;49.240;8.548;2022-10-16T02:16:42;1.50;;;1.40;;
19566;SDS011;9930;49.240;8.548;2022-10-16T02:19:12;1.60;;;1.50;;
19566;SDS011;9930;49.240;8.548;2022-10-16T02:30:42;1.50;;;1.40;;
19566;SDS011;9930;49.240;8.548;2022-10-16T02:33:12;2.25;;;1.33;;
19566;SDS011;9930;49.240;8.548;2022-10-16T02:35:42;2.33;;;1.40;;
19566;SDS011;9930;49.240;8.548;2022-10-16T02:38:12;2.03;;;1.42;;
19566;SDS011;9930;49.240;8.548;2022-10-16T02:40:45;1.40;;;1.30;;
19566;SDS011;9930;49.240;8.548;2022-10-16T02:43:17;1.60;;;1.50;;
19566;SDS011;9930;49.240;8.548;2022-10-16T02:45:42;1.95;;;1.45;;
19566;SDS011;9930;49.240;8.548;2022-10-16T02:48:10;1.40;;;1.30;;
19566;SDS011;9930;49.240;8.548;2022-10-16T02:50:40;1.30;;;1.20;;
19566;SDS011;9930;49.240;8.548;2022-10-16T02:53:09;1.60;;;1.50;;
19566;SDS011;9930;49.240;8.548;2022-10-16T02:55:35;2.10;;;1.20;;
19566;SDS011;9930;49.240;8.548;2022-10-16T02:58:05;1.55;;;1.45;;
19566;SDS011;9930;49.240;8.548;2022-10-16T03:00:35;1.58;;;1.48;;
19566;SDS011;9930;49.240;8.548;2022-10-16T03:03:03;2.35;;;1.50;;
19566;SDS011;9930;49.240;8.548;2022-10-16T03:05:29;1.48;;;1.38;;
19566;SDS011;9930;49.240;8.548;2022-10-16T03:07:59;2.05;;;1.85;;
19566;SDS011;9930;49.240;8.548;2022-10-16T03:10:26;1.50;;;1.40;;
19566;SDS011;9930;49.240;8.548;2022-10-16T03:12:52;1.55;;;1.40;;
19566;SDS011;9930;49.240;8.548;2022-10-16T03:15:18;1.40;;;1.30;;
19566;SDS011;9930;49.240;8.548;2022-10-16T03:17:43;1.50;;;1.40;;
19566;SDS011;9930;49.240;8.548;2022-10-16T03:20:09;1.60;;;1.40;;
19566;SDS011;9930;49.240;8.548;2022-10-16T03:22:38;2.50;;;1.52;;
19566;SDS011;9930;49.240;8.548;2022-10-16T03:25:04;1.42;;;1.33;;
19566;SDS011;9930;49.240;8.548;2022-10-16T03:27:30;1.80;;;1.50;;
19566;SDS011;9930;49.240;8.548;2022-10-16T03:29:58;1.50;;;1.40;;
19566;SDS011;9930;49.240;8.548;2022-10-16T03:32:24;1.50;;;1.40;;
19566;SDS011;9930;49.240;8.548;2022-10-16T03:34:50;2.28;;;1.42;;
19566;SDS011;9930;49.240;8.548;2022-10-16T03:37:15;1.50;;;1.40;;
19566;SDS011;9930;49.240;8.548;2022-10-16T03:39:43;1.95;;;1.55;;
19566;SDS011;9930;49.240;8.548;2022-10-16T03:42:11;1.77;;;1.35;;
19566;SDS011;9930;49.240;8.548;2022-10-16T03:44:40;1.38;;;1.27;;
19566;SDS011;9930;49.240;8.548;2022-10-16T03:47:05;1.73;;;1.42;;
19566;SDS011;9930;49.240;8.548;2022-10-16T03:49:34;1.38;;;1.27;;
19566;SDS011;9930;49.240;8.548;2022-10-16T03:51:59;1.50;;;1.40;;
19566;SDS011;9930;49.240;8.548;2022-10-16T03:54:25;1.33;;;1.23;;
19566;SDS011;9930;49.240;8.548;2022-10-16T03:56:51;2.08;;;1.50;;
19566;SDS011;9930;49.240;8.548;2022-10-16T03:59:19;1.40;;;1.30;;
19566;SDS011;9930;49.240;8.548;2022-10-16T04:01:44;1.90;;;1.42;;
19566;SDS011;9930;49.240;8.548;2022-10-16T04:04:15;1.20;;;1.20;;
19566;SDS011;9930;49.240;8.548;2022-10-16T04:06:43;1.60;;;1.25;;
19566;SDS011;9930;49.240;8.548;2022-10-16T04:09:09;1.25;;;1.20;;
19566;SDS011;9930;49.240;8.548;2022-10-16T04:11:40;1.50;;;1.30;;
19566;SDS011;9930;49.240;8.548;2022-10-16T04:14:07;1.30;;;1.20;;
19566;SDS011;9930;49.240;8.548;2022-10-16T04:16:36;2.22;;;1.20;;
19566;SDS011;9930;49.240;8.548;2022-10-16T04:19:03;1.67;;;1.13;;
19566;SDS011;9930;49.240;8.548;2022-10-16T04:21:29;2.20;;;1.10;;
19566;SDS011;9930;49.240;8.548;2022-10-16T04:23:55;1.20;;;1.10;;
19566;SDS011;9930;49.240;8.548;2022-10-16T04:26:23;2.05;;;1.17;;
19566;SDS011;9930;49.240;8.548;2022-10-16T04:28:51;1.92;;;1.17;;
19566;SDS011;9930;49.240;8.548;2022-10-16T04:31:19;2.10;;;1.20;;
19566;SDS011;9930;49.240;8.548;2022-10-16T04:33:45;1.35;;;1.10;;
19566;SDS011;9930;49.240;8.548;2022-10-16T04:36:16;1.20;;;1.10;;
19566;SDS011;9930;49.240;8.548;2022-10-16T04:38:41;1.52;;;1.30;;
19566;SDS011;9930;49.240;8.548;2022-10-16T04:41:08;1.58;;;1.20;;
19566;SDS011;9930;49.240;8.548;2022-10-16T04:43:34;1.38;;;1.27;;
19566;SDS011;9930;49.240;8.548;2022-10-16T04:46:00;1.85;;;1.75;;
19566;SDS011;9930;49.240;8.548;2022-10-16T04:48:29;1.77;;;1.67;;
19566;SDS011;9930;49.240;8.548;2022-10-16T04:50:58;1.50;;;1.40;;
19566;SDS011;9930;49.240;8.548;2022-10-16T04:53:27;1.65;;;1.50;;
19566;SDS011;9930;49.240;8.548;2022-10-16T04:55:52;2.05;;;1.33;;
19566;SDS011;9930;49.240;8.548;2022-10-16T04:58:22;1.42;;;1.33;;
19566;SDS011;9930;49.240;8.548;2022-10-16T05:00:47;1.77;;;1.30;;
19566;SDS011;9930;49.240;8.548;2022-10-16T05:03:16;2.25;;;1.40;;
19566;SDS011;9930;49.240;8.548;2022-10-16T05:05:42;1.33;;;1.23;;
19566;SDS011;9930;49.240;8.548;2022-10-16T05:08:11;1.30;;;1.20;;
19566;SDS011;9930;49.240;8.548;2022-10-16T05:10:40;1.33;;;1.23;;
19566;SDS011;9930;49.240;8.548;2022-10-16T05:13:09;1.75;;;1.65;;
19566;SDS011;9930;49.240;8.548;2022-10-16T05:15:36;2.88;;;2.67;;
19566;SDS011;9930;49.240;8.548;2022-10-16T05:18:03;3.95;;;3.65;;
19566;SDS011;9930;49.240;8.548;2022-10-16T05:20:29;5.28;;;4.78;;
19566;SDS011;9930;49.240;8.548;2022-10-16T05:22:59;5.20;;;4.25;;
19566;SDS011;9930;49.240;8.548;2022-10-16T05:25:28;5.30;;;3.78;;
19566;SDS011;9930;49.240;8.548;2022-10-16T05:27:58;6.32;;;4.30;;
19566;SDS011;9930;49.240;8.548;2022-10-16T05:30:25;3.67;;;2.78;;
19566;SDS011;9930;49.240;8.548;2022-10-16T05:32:53;4.47;;;3.33;;
19566;SDS011;9930;49.240;8.548;2022-10-16T05:35:22;4.55;;;4.15;;
19566;SDS011;9930;49.240;8.548;2022-10-16T05:37:49;4.80;;;4.40;;
19566;SDS011;9930;49.240;8.548;2022-10-16T05:40:15;3.00;;;2.60;;
19566;SDS011;9930;49.240;8.548;2022-10-16T05:42:41;2.55;;;2.00;;
19566;SDS011;9930;49.240;8.548;2022-10-16T05:45:08;2.30;;;2.10;;
19566;SDS011;9930;49.240;8.548;2022-10-16T05:47:41;1.92;;;1.73;;
19566;SDS011;9930;49.240;8.548;2022-10-16T05:50:11;2.53;;;1.92;;
19566;SDS011;9930;49.240;8.548;2022-10-16T05:52:38;2.50;;;1.92;;
19566;SDS011;9930;49.240;8.548;2022-10-16T05:55:10;2.28;;;1.80;;
19566;SDS011;9930;49.240;8.548;2022-10-16T05:57:38;1.70;;;1.60;;
19566;SDS011;9930;49.240;8.548;2022-10-16T06:00:08;1.60;;;1.50;;
19566;SDS011;9930;49.240;8.548;2022-10-16T06:02:40;2.17;;;1.48;;
19566;SDS011;9930;49.240;8.548;2022-10-16T06:05:11;1.38;;;1.30;;
19566;SDS011;9930;49.240;8.548;2022-10-16T06:07:38;1.38;;;1.27;;
19566;SDS011;9930;49.240;8.548;2022-10-16T06:10:04;1.85;;;1.40;;
19566;SDS011;9930;49.240;8.548;2022-10-16T06:12:33;1.20;;;1.05;;
19566;SDS011;9930;49.240;8.548;2022-10-16T06:15:02;2.08;;;1.20;;
19566;SDS011;9930;49.240;8.548;2022-10-16T06:17:28;1.73;;;1.23;;
19566;SDS011;9930;49.240;8.548;2022-10-16T06:19:53;1.40;;;1.30;;
19566;SDS011;9930;49.240;8.548;2022-10-16T06:22:21;1.30;;;1.20;;
19566;SDS011;9930;49.240;8.548;2022-10-16T06:24:49;2.30;;;1.40;;
19566;SDS011;9930;49.240;8.548;2022-10-16T06:27:17;2.05;;;1.52;;
19566;SDS011;9930;49.240;8.548;2022-10-16T06:29:43;3.03;;;2.10;;
19566;SDS011;9930;49.240;8.548;2022-10-16T06:32:10;1.80;;;1.70;;
19566;SDS011;9930;49.240;8.548;2022-10-16T06:34:35;1.70;;;1.60;;
19566;SDS011;9930;49.240;8.548;2022-10-16T06:37:05;2.10;;;1.40;;
19566;SDS011;9930;49.240;8.548;2022-10-16T06:39:33;2.97;;;1.30;;
19566;SDS011;9930;49.240;8.548;2022-10-16T06:41:59;2.25;;;1.35;;
19566;SDS011;9930;49.240;8.548;2022-10-16T06:44:24;1.50;;;1.40;;
19566;SDS011;9930;49.240;8.548;2022-10-16T06:46:50;1.83;;;1.50;;
19566;SDS011;9930;49.240;8.548;2022-10-16T06:49:18;1.80;;;1.48;;
19566;SDS011;9930;49.240;8.548;2022-10-16T06:51:47;1.48;;;1.38;;
19566;SDS011;9930;49.240;8.548;2022-10-16T06:54:17;1.88;;;1.38;;
19566;SDS011;9930;49.240;8.548;2022-10-16T06:56:46;1.35;;;1.25;;
19566;SDS011;9930;49.240;8.548;2022-10-16T06:59:15;2.22;;;1.33;;
19566;SDS011;9930;49.240;8.548;2022-10-16T07:01:41;2.10;;;1.40;;
19566;SDS011;9930;49.240;8.548;2022-10-16T07:04:09;1.88;;;1.48;;
19566;SDS011;9930;49.240;8.548;2022-10-16T07:06:41;2.50;;;1.35;;
19566;SDS011;9930;49.240;8.548;2022-10-16T07:09:09;1.75;;;1.65;;
19566;SDS011;9930;49.240;8.548;2022-10-16T07:11:36;1.42;;;1.33;;
19566;SDS011;9930;49.240;8.548;2022-10-16T07:14:08;1.50;;;1.40;;
19566;SDS011;9930;49.240;8.548;2022-10-16T07:16:46;1.70;;;1.60;;
19566;SDS011;9930;49.240;8.548;2022-10-16T07:19:15;2.30;;;1.90;;
19566;SDS011;9930;49.240;8.548;2022-10-16T07:21:46;2.70;;;1.85;;
19566;SDS011;9930;49.240;8.548;2022-10-16T07:24:16;4.00;;;2.17;;
19566;SDS011;9930;49.240;8.548;2022-10-16T07:26:43;1.98;;;1.73;;
19566;SDS011;9930;49.240;8.548;2022-10-16T07:29:12;2.38;;;2.20;;
19566;SDS011;9930;49.240;8.548;2022-10-16T07:31:48;1.80;;;1.70;;
19566;SDS011;9930;49.240;8.548;2022-10-16T07:34:15;1.92;;;1.83;;
19566;SDS011;9930;49.240;8.548;2022-10-16T07:36:50;2.88;;;1.63;;
19566;SDS011;9930;49.240;8.548;2022-10-16T07:39:16;1.60;;;1.50;;
19566;SDS011;9930;49.240;8.548;2022-10-16T07:41:42;1.48;;;1.38;;
19566;SDS011;9930;49.240;8.548;2022-10-16T07:44:13;1.55;;;1.45;;
19566;SDS011;9930;49.240;8.548;2022-10-16T07:46:40;1.45;;;1.35;;
19566;SDS011;9930;49.240;8.548;2022-10-16T07:49:08;2.42;;;1.40;;
19566;SDS011;9930;49.240;8.548;2022-10-16T07:51:36;2.58;;;1.40;;
19566;SDS011;9930;49.240;8.548;2022-10-16T07:54:07;1.40;;;1.30;;
19566;SDS011;9930;49.240;8.548;2022-10-16T07:56:35;2.58;;;1.20;;
19566;SDS011;9930;49.240;8.548;2022-10-16T07:59:01;2.03;;;1.20;;
19566;SDS011;9930;49.240;8.548;2022-10-16T08:01:26;1.65;;;1.30;;
19566;SDS011;9930;49.240;8.548;2022-10-16T08:03:54;2.75;;;1.13;;
19566;SDS011;9930;49.240;8.548;2022-10-16T08:06:22;1.13;;;1.05;;
19566;SDS011;9930;49.240;8.548;2022-10-16T08:08:48;1.85;;;1.30;;
19566;SDS011;9930;49.240;8.548;2022-10-16T08:11:14;1.58;;;1.20;;
19566;SDS011;9930;49.240;8.548;2022-10-16T08:13:42;1.83;;;1.25;;
19566;SDS011;9930;49.240;8.548;2022-10-16T08:16:11;1.20;;;1.10;;
19566;SDS011;9930;49.240;8.548;2022-10-16T08:18:41;1.20;;;1.20;;
19566;SDS011;9930;49.240;8.548;2022-10-16T08:21:12;2.40;;;1.20;;
19566;SDS011;9930;49.240;8.548;2022-10-16T08:23:44;1.50;;;1.40;;
19566;SDS011;9930;49.240;8.548;2022-10-16T08:26:11;1.73;;;1.40;;
19566;SDS011;9930;49.240;8.548;2022-10-16T08:28:42;2.80;;;1.67;;
19566;SDS011;9930;49.240;8.548;2022-10-16T08:31:14;1.67;;;1.58;;
19566;SDS011;9930;49.240;8.548;2022-10-16T08:33:41;1.60;;;1.50;;
19566;SDS011;9930;49.240;8.548;2022-10-16T08:36:13;2.40;;;2.20;;
19566;SDS011;9930;49.240;8.548;2022-10-16T08:38:42;2.22;;;1.90;;
19566;SDS011;9930;49.240;8.548;2022-10-16T08:44:24;2.65;;;1.80;;
19566;SDS011;9930;49.240;8.548;2022-10-16T08:49:50;1.92;;;1.80;;
19566;SDS011;9930;49.240;8.548;2022-10-16T08:52:38;1.70;;;1.60;;
19566;SDS011;9930;49.240;8.548;2022-10-16T08:58:14;2.40;;;1.63;;
19566;SDS011;9930;49.240;8.548;2022-10-16T09:00:46;3.58;;;1.95;;
19566;SDS011;9930;49.240;8.548;2022-10-16T09:08:42;1.77;;;1.25;;
19566;SDS011;9930;49.240;8.548;2022-10-16T09:11:45;1.40;;;1.30;;
19566;SDS011;9930;49.240;8.548;2022-10-16T09:14:42;1.40;;;1.30;;
19566;SDS011;9930;49.240;8.548;2022-10-16T09:22:40;1.70;;;1.30;;
19566;SDS011;9930;49.240;8.548;2022-10-16T09:25:19;1.67;;;1.58;;
19566;SDS011;9930;49.240;8.548;2022-10-16T09:27:47;2.40;;;1.30;;
19566;SDS011;9930;49.240;8.548;2022-10-16T09:30:18;1.35;;;1.25;;
19566;SDS011;9930;49.240;8.548;2022-10-16T09:32:50;1.80;;;1.27;;
19566;SDS011;9930;49.240;8.548;2022-10-16T09:35:22;2.08;;;1.70;;
19566;SDS011;9930;49.240;8.548;2022-10-16T09:38:04;1.55;;;1.30;;
19566;SDS011;9930;49.240;8.548;2022-10-16T09:43:20;1.88;;;1.70;;
19566;SDS011;9930;49.240;8.548;2022-10-16T09:45:58;2.28;;;1.58;;
19566;SDS011;9930;49.240;8.548;2022-10-16T09:48:51;1.60;;;1.38;;
19566;SDS011;9930;49.240;8.548;2022-10-16T09:53:58;1.30;;;1.20;;
19566;SDS011;9930;49.240;8.548;2022-10-16T09:56:45;1.48;;;1.35;;
19566;SDS011;9930;49.240;8.548;2022-10-16T09:59:20;1.50;;;1.40;;
19566;SDS011;9930;49.240;8.548;2022-10-16T10:01:52;1.85;;;1.30;;
19566;SDS011;9930;49.240;8.548;2022-10-16T10:04:20;1.50;;;1.40;;
19566;SDS011;9930;49.240;8.548;2022-10-16T10:06:52;1.67;;;1.58;;
19566;SDS011;9930;49.240;8.548;2022-10-16T10:09:23;2.38;;;1.52;;
19566;SDS011;9930;49.240;8.548;2022-10-16T10:20:00;1.77;;;1.50;;
19566;SDS011;9930;49.240;8.548;2022-10-16T10:22:54;2.22;;;1.30;;
19566;SDS011;9930;49.240;8.548;2022-10-16T10:25:24;1.42;;;1.25;;
19566;SDS011;9930;49.240;8.548;2022-10-16T10:31:04;2.88;;;1.38;;
19566;SDS011;9930;49.240;8.548;2022-10-16T10:36:37;1.85;;;1.50;;
19566;SDS011;9930;49.240;8.548;2022-10-16T10:50:45;2.60;;;1.83;;
19566;SDS011;9930;49.240;8.548;2022-10-16T11:05:21;1.70;;;1.50;;
19566;SDS011;9930;49.240;8.548;2022-10-16T11:08:14;2.65;;;1.30;;
19566;SDS011;9930;49.240;8.548;2022-10-16T11:11:00;1.60;;;1.50;;
19566;SDS011;9930;49.240;8.548;2022-10-16T11:16:39;1.52;;;1.42;;
19566;SDS011;9930;49.240;8.548;2022-10-16T11:21:55;2.33;;;1.60;;
19566;SDS011;9930;49.240;8.548;2022-10-16T11:28:10;1.50;;;1.40;;
19566;SDS011;9930;49.240;8.548;2022-10-16T11:30:30;1.30;;;1.20;;
19566;SDS011;9930;49.240;8.548;2022-10-16T11:33:47;1.30;;;1.20;;
19566;SDS011;9930;49.240;8.548;2022-10-16T11:36:16;1.45;;;1.10;;
19566;SDS011;9930;49.240;8.548;2022-10-16T11:45:10;2.65;;;1.73;;
19566;SDS011;9930;49.240;8.548;2022-10-16T11:47:41;2.03;;;1.30;;
19566;SDS011;9930;49.240;8.548;2022-10-16T11:52:44;1.30;;;1.20;;
19566;SDS011;9930;49.240;8.548;2022-10-16T11:55:41;3.63;;;1.30;;
19566;SDS011;9930;49.240;8.548;2022-10-16T11:58:14;1.63;;;1.30;;
19566;SDS011;9930;49.240;8.548;2022-10-16T12:03:24;1.40;;;1.30;;
19566;SDS011;9930;49.240;8.548;2022-10-16T12:08:57;1.40;;;1.30;;
19566;SDS011;9930;49.240;8.548;2022-10-16T12:14:04;1.50;;;1.33;;
19566;SDS011;9930;49.240;8.548;2022-10-16T12:19:19;1.73;;;1.23;;
19566;SDS011;9930;49.240;8.548;2022-10-16T12:21:49;1.83;;;1.20;;
19566;SDS011;9930;49.240;8.548;2022-10-16T12:24:20;1.40;;;1.30;;
19566;SDS011;9930;49.240;8.548;2022-10-16T12:27:20;1.83;;;1.30;;
19566;SDS011;9930;49.240;8.548;2022-10-16T12:29:59;2.05;;;1.38;;
19566;SDS011;9930;49.240;8.548;2022-10-16T12:32:35;2.25;;;1.40;;
19566;SDS011;9930;49.240;8.548;2022-10-16T12:35:04;2.20;;;1.55;;
19566;SDS011;9930;49.240;8.548;2022-10-16T12:37:46;2.40;;;1.75;;
19566;SDS011;9930;49.240;8.548;2022-10-16T12:40:26;1.90;;;1.80;;
19566;SDS011;9930;49.240;8.548;2022-10-16T12:42:58;1.60;;;1.33;;
19566;SDS011;9930;49.240;8.548;2022-10-16T12:46:06;1.48;;;1.35;;
19566;SDS011;9930;49.240;8.548;2022-10-16T12:49:20;1.42;;;1.30;;
19566;SDS011;9930;49.240;8.548;2022-10-16T12:51:54;1.92;;;1.67;;
19566;SDS011;9930;49.240;8.548;2022-10-16T12:54:27;1.60;;;1.38;;
19566;SDS011;9930;49.240;8.548;2022-10-16T12:57:19;1.40;;;1.30;;
19566;SDS011;9930;49.240;8.548;2022-10-16T13:14:42;4.03;;;1.60;;
19566;SDS011;9930;49.240;8.548;2022-10-16T13:20:23;1.42;;;1.10;;
19566;SDS011;9930;49.240;8.548;2022-10-16T13:23:29;1.67;;;1.58;;
19566;SDS011;9930;49.240;8.548;2022-10-16T13:29:01;2.42;;;1.40;;
19566;SDS011;9930;49.240;8.548;2022-10-16T13:31:28;1.60;;;1.50;;
19566;SDS011;9930;49.240;8.548;2022-10-16T13:33:56;1.58;;;1.48;;
19566;SDS011;9930;49.240;8.548;2022-10-16T13:41:46;1.60;;;1.50;;
19566;SDS011;9930;49.240;8.548;2022-10-16T13:44:31;1.98;;;1.50;;
19566;SDS011;9930;49.240;8.548;2022-10-16T13:47:10;1.52;;;1.30;;
19566;SDS011;9930;49.240;8.548;2022-10-16T13:50:02;2.05;;;1.20;;
19566;SDS011;9930;49.240;8.548;2022-10-16T13:52:41;1.77;;;1.67;;
19566;SDS011;9930;49.240;8.548;2022-10-16T13:55:18;1.60;;;1.50;;
19566;SDS011;9930;49.240;8.548;2022-10-16T13:57:44;1.95;;;1.67;;
19566;SDS011;9930;49.240;8.548;2022-10-16T14:00:25;2.65;;;1.80;;
19566;SDS011;9930;49.240;8.548;2022-10-16T14:03:02;1.65;;;1.55;;
19566;SDS011;9930;49.240;8.548;2022-10-16T14:05:51;1.67;;;1.58;;
19566;SDS011;9930;49.240;8.548;2022-10-16T14:08:30;1.45;;;1.35;;
19566;SDS011;9930;49.240;8.548;2022-10-16T14:11:01;1.50;;;1.40;;
19566;SDS011;9930;49.240;8.548;2022-10-16T14:13:42;1.42;;;1.30;;
19566;SDS011;9930;49.240;8.548;2022-10-16T14:16:16;1.40;;;1.30;;
19566;SDS011;9930;49.240;8.548;2022-10-16T14:18:55;2.75;;;1.60;;
19566;SDS011;9930;49.240;8.548;2022-10-16T14:21:28;2.97;;;1.90;;
19566;SDS011;9930;49.240;8.548;2022-10-16T14:23:54;2.00;;;1.90;;
19566;SDS011;9930;49.240;8.548;2022-10-16T14:26:26;1.80;;;1.70;;
19566;SDS011;9930;49.240;8.548;2022-10-16T14:31:42;3.63;;;2.00;;
19566;SDS011;9930;49.240;8.548;2022-10-16T14:37:06;2.05;;;1.90;;
19566;SDS011;9930;49.240;8.548;2022-10-16T14:39:53;1.88;;;1.77;;
19566;SDS011;9930;49.240;8.548;2022-10-16T14:42:21;2.22;;;1.83;;
19566;SDS011;9930;49.240;8.548;2022-10-16T14:44:53;1.67;;;1.58;;
19566;SDS011;9930;49.240;8.548;2022-10-16T14:47:23;2.60;;;1.58;;
19566;SDS011;9930;49.240;8.548;2022-10-16T14:49:54;1.80;;;1.60;;
19566;SDS011;9930;49.240;8.548;2022-10-16T14:52:20;2.20;;;1.55;;
19566;SDS011;9930;49.240;8.548;2022-10-16T14:54:49;1.40;;;1.30;;
19566;SDS011;9930;49.240;8.548;2022-10-16T14:57:20;1.70;;;1.60;;
19566;SDS011;9930;49.240;8.548;2022-10-16T14:59:52;1.73;;;1.63;;
19566;SDS011;9930;49.240;8.548;2022-10-16T15:05:23;1.88;;;1.48;;
19566;SDS011;9930;49.240;8.548;2022-10-16T15:07:51;5.30;;;2.13;;
19566;SDS011;9930;49.240;8.548;2022-10-16T15:10:19;2.78;;;1.38;;
19566;SDS011;9930;49.240;8.548;2022-10-16T15:12:48;2.28;;;1.50;;
19566;SDS011;9930;49.240;8.548;2022-10-16T15:18:02;2.28;;;1.95;;
19566;SDS011;9930;49.240;8.548;2022-10-16T15:20:45;3.30;;;1.80;;
19566;SDS011;9930;49.240;8.548;2022-10-16T15:23:17;2.97;;;1.90;;
19566;SDS011;9930;49.240;8.548;2022-10-16T15:25:49;2.70;;;2.00;;
19566;SDS011;9930;49.240;8.548;2022-10-16T15:28:20;2.00;;;1.52;;
19566;SDS011;9930;49.240;8.548;2022-10-16T15:30:49;1.80;;;1.70;;
19566;SDS011;9930;49.240;8.548;2022-10-16T15:33:24;3.70;;;1.60;;
19566;SDS011;9930;49.240;8.548;2022-10-16T15:35:58;1.60;;;1.50;;
19566;SDS011;9930;49.240;8.548;2022-10-16T15:38:24;1.52;;;1.42;;
19566;SDS011;9930;49.240;8.548;2022-10-16T15:40:53;1.60;;;1.48;;
19566;SDS011;9930;49.240;8.548;2022-10-16T15:43:19;1.60;;;1.50;;
19566;SDS011;9930;49.240;8.548;2022-10-16T15:45:58;1.75;;;1.63;;
19566;SDS011;9930;49.240;8.548;2022-10-16T15:48:29;1.90;;;1.80;;
19566;SDS011;9930;49.240;8.548;2022-10-16T15:50:58;4.70;;;2.45;;
19566;SDS011;9930;49.240;8.548;2022-10-16T15:53:27;3.70;;;2.70;;
19566;SDS011;9930;49.240;8.548;2022-10-16T15:55:55;2.17;;;1.92;;
19566;SDS011;9930;49.240;8.548;2022-10-16T15:58:21;1.90;;;1.80;;
19566;SDS011;9930;49.240;8.548;2022-10-16T16:00:56;1.85;;;1.75;;
19566;SDS011;9930;49.240;8.548;2022-10-16T16:03:30;3.17;;;1.63;;
19566;SDS011;9930;49.240;8.548;2022-10-16T16:06:04;2.22;;;1.83;;
19566;SDS011;9930;49.240;8.548;2022-10-16T16:08:36;2.40;;;2.20;;
19566;SDS011;9930;49.240;8.548;2022-10-16T16:11:05;2.67;;;2.20;;
19566;SDS011;9930;49.240;8.548;2022-10-16T16:13:35;2.53;;;2.20;;
19566;SDS011;9930;49.240;8.548;2022-10-16T16:16:09;2.03;;;1.83;;
19566;SDS011;9930;49.240;8.548;2022-10-16T16:18:41;2.25;;;2.00;;
19566;SDS011;9930;49.240;8.548;2022-10-16T16:21:10;2.50;;;2.30;;
19566;SDS011;9930;49.240;8.548;2022-10-16T16:23:39;1.90;;;1.80;;
19566;SDS011;9930;49.240;8.548;2022-10-16T16:26:11;2.03;;;1.80;;
19566;SDS011;9930;49.240;8.548;2022-10-16T16:28:39;2.13;;;1.90;;
19566;SDS011;9930;49.240;8.548;2022-10-16T16:31:08;2.00;;;1.90;;
19566;SDS011;9930;49.240;8.548;2022-10-16T16:33:35;3.15;;;1.83;;
19566;SDS011;9930;49.240;8.548;2022-10-16T16:36:02;2.13;;;1.80;;
19566;SDS011;9930;49.240;8.548;2022-10-16T16:38:33;2.65;;;1.85;;
19566;SDS011;9930;49.240;8.548;2022-10-16T16:40:59;2.55;;;2.20;;
19566;SDS011;9930;49.240;8.548;2022-10-16T16:43:39;2.88;;;2.67;;
19566;SDS011;9930;49.240;8.548;2022-10-16T16:46:09;2.78;;;2.40;;
19566;SDS011;9930;49.240;8.548;2022-10-16T16:48:39;2.70;;;2.50;;
19566;SDS011;9930;49.240;8.548;2022-10-16T16:51:10;3.92;;;2.63;;
19566;SDS011;9930;49.240;8.548;2022-10-16T16:53:45;2.63;;;2.42;;
19566;SDS011;9930;49.240;8.548;2022-10-16T16:56:18;3.70;;;2.85;;
19566;SDS011;9930;49.240;8.548;2022-10-16T16:58:46;3.17;;;2.40;;
19566;SDS011;9930;49.240;8.548;2022-10-16T17:01:18;3.50;;;3.10;;
19566;SDS011;9930;49.240;8.548;2022-10-16T17:03:45;3.03;;;2.58;;
19566;SDS011;9930;49.240;8.548;2022-10-16T17:06:14;2.40;;;2.20;;
19566;SDS011;9930;49.240;8.548;2022-10-16T17:08:48;5.30;;;2.42;;
19566;SDS011;9930;49.240;8.548;2022-10-16T17:11:32;2.97;;;2.38;;
19566;SDS011;9930;49.240;8.548;2022-10-16T17:13:59;3.33;;;2.42;;
19566;SDS011;9930;49.240;8.548;2022-10-16T17:16:32;3.88;;;2.20;;
19566;SDS011;9930;49.240;8.548;2022-10-16T17:19:02;2.25;;;2.05;;
19566;SDS011;9930;49.240;8.548;2022-10-16T17:21:40;2.45;;;1.90;;
19566;SDS011;9930;49.240;8.548;2022-10-16T17:24:06;2.85;;;2.20;;
19566;SDS011;9930;49.240;8.548;2022-10-16T17:26:35;3.08;;;2.15;;
19566;SDS011;9930;49.240;8.548;2022-10-16T17:29:05;2.60;;;2.13;;
19566;SDS011;9930;49.240;8.548;2022-10-16T17:31:32;2.67;;;2.08;;
19566;SDS011;9930;49.240;8.548;2022-10-16T17:34:02;3.35;;;2.15;;
19566;SDS011;9930;49.240;8.548;2022-10-16T17:36:32;2.92;;;2.60;;
19566;SDS011;9930;49.240;8.548;2022-10-16T17:39:09;3.47;;;3.00;;
19566;SDS011;9930;49.240;8.548;2022-10-16T17:41:38;3.47;;;3.15;;
19566;SDS011;9930;49.240;8.548;2022-10-16T17:44:05;3.20;;;2.88;;
19566;SDS011;9930;49.240;8.548;2022-10-16T17:46:31;3.70;;;2.83;;
19566;SDS011;9930;49.240;8.548;2022-10-16T17:49:00;2.97;;;2.70;;
19566;SDS011;9930;49.240;8.548;2022-10-16T17:51:26;2.83;;;2.63;;
19566;SDS011;9930;49.240;8.548;2022-10-16T17:53:56;8.02;;;4.90;;
19566;SDS011;9930;49.240;8.548;2022-10-16T17:56:26;5.65;;;4.93;;
19566;SDS011;9930;49.240;8.548;2022-10-16T17:58:54;4.53;;;3.70;;